Time;durP1;ratioP1;P1;durP2;ratioP2;P2;SDS_P1;SDS_P2;PMS_P1;PMS_P2;Temp;Humidity;BMP_temperature;BMP_pressure;BME280_temperature;BME280_humidity;BME280_pressure;Samples;Min_cycle;Max_cycle;Signal;HPM_P1;HPM_P2
2023/06/30 00:01:13;;;;;;;;;;;;;;;;;;4973012;28;19972;-60
2023/06/30 00:03:38;;;;;;;;;;;;;;;;;;4972681;28;20322;-61
2023/06/30 00:06:03;;;;;;;;;;;;;;;;;;4972608;28;19948;-58
2023/06/30 00:08:29;;;;;;;;;;;;;;;;;;4970282;28;20467;-60
2023/06/30 00:10:54;;;;;;;;;;;;;;;;;;4973221;28;19917;-61
2023/06/30 00:13:19;;;;;;;;;;;;;;;;;;4974607;28;19948;-59
2023/06/30 00:15:45;;;;;;;;;;;;;;;;;;4972956;28;19926;-59
2023/06/30 00:18:10;;;;;;;;;;;;;;;;;;4974587;28;20302;-58
2023/06/30 00:20:35;;;;;;;;;;;;;;;;;;4974561;28;19944;-59
2023/06/30 00:23:01;;;;;;;;;;;;;;;;;;4972394;28;19958;-59
2023/06/30 00:25:26;;;;;;;;;;;;;;;;;;4974940;28;19949;-59
2023/06/30 00:27:51;;;;;;;;;;;;;;;;;;4973188;28;19972;-58
2023/06/30 00:30:17;;;;;;;;;;;;;;;;;;4975572;28;20013;-61
2023/06/30 00:32:42;;;;;;;;;;;;;;;;;;4974696;28;19925;-59
2023/06/30 00:35:08;;;;;;;;;;;;;;;;;;4973511;28;19979;-59
2023/06/30 00:37:34;;;;;;;;;;;;;;;;;;4977004;28;20395;-58
2023/06/30 00:39:59;;;;;;;;;;;;;;;;;;4972172;28;19950;-60
2023/06/30 00:42:25;;;;;;;;;;;;;;;;;;4972601;28;19933;-64
2023/06/30 00:44:52;;;;;;;;;;;;;;;;;;4979649;28;20695;-61
2023/06/30 00:47:17;;;;;;;;;;;;;;;;;;4978868;28;19918;-59
2023/06/30 00:49:43;;;;;;;;;;;;;;;;;;4979146;28;19935;-59
2023/06/30 00:52:08;;;;;;;;;;;;;;;;;;4970428;28;19932;-60
2023/06/30 00:54:33;;;;;;;;;;;;;;;;;;4972338;28;19925;-58
2023/06/30 00:56:59;;;;;;;;;;;;;;;;;;4970997;28;20132;-60
2023/06/30 00:59:24;;;;;;;;;;;;;;;;;;4978033;28;19936;-59
2023/06/30 01:01:50;;;;;;;;;;;;;;;;;;4972585;28;20427;-58
2023/06/30 01:04:15;;;;;;;;;;;;;;;;;;4976102;28;19917;-59
2023/06/30 01:06:40;;;;;;;;;;;;;;;;;;4960225;28;19936;-59
2023/06/30 01:09:06;;;;;;;;;;;;;;;;;;4970266;28;19962;-58
2023/06/30 01:11:31;;;;;;;;;;;;;;;;;;4972387;28;19960;-59
2023/06/30 01:13:56;;;;;;;;;;;;;;;;;;4976633;28;19929;-59
2023/06/30 01:16:22;;;;;;;;;;;;;;;;;;4978653;28;19989;-58
2023/06/30 01:18:47;;;;;;;;;;;;;;;;;;4972393;28;19936;-59
2023/06/30 01:21:12;;;;;;;;;;;;;;;;;;4971823;28;19974;-60
2023/06/30 01:23:38;;;;;;;;;;;;;;;;;;4971701;28;19967;-61
2023/06/30 01:26:04;;;;;;;;;;;;;;;;;;4977982;28;19914;-60
2023/06/30 01:28:29;;;;;;;;;;;;;;;;;;4972509;28;19925;-60
2023/06/30 01:30:55;;;;;;;;;;;;;;;;;;4970799;28;20297;-60
2023/06/30 01:33:21;;;;;;;;;;;;;;;;;;4978449;28;20005;-61
2023/06/30 01:35:48;;;;;;;;;;;;;;;;;;4971065;28;20278;-60
2023/06/30 01:38:14;;;;;;;;;;;;;;;;;;4972864;28;19977;-60
2023/06/30 01:40:39;;;;;;;;;;;;;;;;;;4972891;28;19925;-60
2023/06/30 01:43:06;;;;;;;;;;;;;;;;;;4970719;28;19933;-58
2023/06/30 01:45:31;;;;;;;;;;;;;;;;;;4970996;28;19951;-59
2023/06/30 01:47:57;;;;;;;;;;;;;;;;;;4968372;28;19943;-59
2023/06/30 01:50:22;;;;;;;;;;;;;;;;;;4972014;28;20440;-58
2023/06/30 01:52:47;;;;;;;;;;;;;;;;;;4970194;28;20009;-59
2023/06/30 01:55:12;;;;;;;;;;;;;;;;;;4971212;28;19958;-60
2023/06/30 01:57:38;;;;;;;;;;;;;;;;;;4969066;28;19983;-60
2023/06/30 02:00:05;;;;;;;;;;;;;;;;;;4976177;28;19934;-60
2023/06/30 02:02:37;;;;;;;;;;;;;;;;;;4971086;28;19952;-59
2023/06/30 02:05:02;;;;;;;;;;;;;;;;;;4970052;28;19952;-61
2023/06/30 02:07:28;;;;;;;;;;;;;;;;;;4970153;28;20337;-60
2023/06/30 02:09:54;;;;;;;;;;;;;;;;;;4971061;28;19952;-59
2023/06/30 02:12:19;;;;;;;;;;;;;;;;;;4970599;28;20504;-58
2023/06/30 02:14:45;;;;;;;;;;;;;;;;;;4972600;28;19960;-59
2023/06/30 02:17:10;;;;;;;;;;;;;;;;;;4971059;28;19930;-59
2023/06/30 02:19:35;;;;;;;;;;;;;;;;;;4977514;28;19999;-61
2023/06/30 02:22:00;;;;;;;;;;;;;;;;;;4971852;28;19936;-59
2023/06/30 02:24:26;;;;;;;;;;;;;;;;;;4970758;28;20001;-65
2023/06/30 02:26:51;;;;;;;;;;;;;;;;;;4972129;28;19917;-65
2023/06/30 02:29:16;;;;;;;;;;;;;;;;;;4970426;28;20003;-65
2023/06/30 02:31:41;;;;;;;;;;;;;;;;;;4963673;28;19925;-65
2023/06/30 02:34:07;;;;;;;;;;;;;;;;;;4972248;28;20411;-67
2023/06/30 02:36:32;;;;;;;;;;;;;;;;;;4972049;28;20025;-66
2023/06/30 02:38:57;;;;;;;;;;;;;;;;;;4971830;28;19924;-67
2023/06/30 02:41:23;;;;;;;;;;;;;;;;;;4979707;28;20400;-67
2023/06/30 02:43:49;;;;;;;;;;;;;;;;;;4978000;28;19936;-65
2023/06/30 02:46:14;;;;;;;;;;;;;;;;;;4970459;28;20043;-67
2023/06/30 02:48:39;;;;;;;;;;;;;;;;;;4971754;28;19968;-66
2023/06/30 02:51:05;;;;;;;;;;;;;;;;;;4973631;28;19948;-69
2023/06/30 02:53:31;;;;;;;;;;;;;;;;;;4969851;28;19940;-63
2023/06/30 02:55:56;;;;;;;;;;;;;;;;;;4973654;28;19960;-67
2023/06/30 02:58:22;;;;;;;;;;;;;;;;;;4983564;28;19932;-65
2023/06/30 03:00:49;;;;;;;;;;;;;;;;;;4977096;28;19929;-66
2023/06/30 03:03:14;;;;;;;;;;;;;;;;;;4976555;28;19943;-68
2023/06/30 03:05:40;;;;;;;;;;;;;;;;;;4976667;28;19943;-69
2023/06/30 03:08:06;;;;;;;;;;;;;;;;;;4986935;28;19938;-67
2023/06/30 03:10:31;;;;;;;;;;;;;;;;;;4970606;28;19934;-67
2023/06/30 03:12:57;;;;;;;;;;;;;;;;;;4974561;28;19960;-66
2023/06/30 03:15:22;;;;;;;;;;;;;;;;;;4957808;28;19952;-66
2023/06/30 03:17:48;;;;;;;;;;;;;;;;;;4978903;28;20307;-65
2023/06/30 03:20:14;;;;;;;;;;;;;;;;;;4973345;28;19944;-63
2023/06/30 03:22:39;;;;;;;;;;;;;;;;;;4973408;28;20338;-64
2023/06/30 03:25:04;;;;;;;;;;;;;;;;;;4976077;28;19955;-62
2023/06/30 03:27:31;;;;;;;;;;;;;;;;;;4981819;28;19992;-59
2023/06/30 03:29:56;;;;;;;;;;;;;;;;;;4976330;28;20047;-65
2023/06/30 03:32:22;;;;;;;;;;;;;;;;;;4973594;28;19965;-63
2023/06/30 03:34:48;;;;;;;;;;;;;;;;;;4978712;28;20293;-61
2023/06/30 03:37:13;;;;;;;;;;;;;;;;;;4973786;28;19972;-64
2023/06/30 03:39:39;;;;;;;;;;;;;;;;;;4977833;28;19933;-62
2023/06/30 03:42:04;;;;;;;;;;;;;;;;;;4980584;28;19936;-62
2023/06/30 03:44:30;;;;;;;;;;;;;;;;;;4976005;28;20747;-63
2023/06/30 03:46:56;;;;;;;;;;;;;;;;;;4972420;28;20019;-63
2023/06/30 03:49:23;;;;;;;;;;;;;;;;;;4978928;28;20514;-62
2023/06/30 03:51:49;;;;;;;;;;;;;;;;;;4972476;28;19933;-61
2023/06/30 03:54:14;;;;;;;;;;;;;;;;;;4974131;28;19967;-63
2023/06/30 03:56:40;;;;;;;;;;;;;;;;;;4977985;28;20299;-61
2023/06/30 03:59:05;;;;;;;;;;;;;;;;;;4974660;28;20055;-64
2023/06/30 04:01:33;;;;;;;;;;;;;;;;;;4970676;28;19996;-63
2023/06/30 04:03:58;;;;;;;;;;;;;;;;;;4970925;28;19942;-63
2023/06/30 04:06:24;;;;;;;;;;;;;;;;;;4973716;28;19934;-63
2023/06/30 04:08:49;;;;;;;;;;;;;;;;;;4974017;28;19922;-62
2023/06/30 04:11:15;;;;;;;;;;;;;;;;;;4974548;28;19974;-64
2023/06/30 04:13:40;;;;;;;;;;;;;;;;;;4973701;28;20012;-64
2023/06/30 04:16:05;;;;;;;;;;;;;;;;;;4972576;28;20119;-62
2023/06/30 04:18:30;;;;;;;;;;;;;;;;;;4975202;28;19941;-65
2023/06/30 04:20:56;;;;;;;;;;;;;;;;;;4972636;28;19956;-64
2023/06/30 04:23:22;;;;;;;;;;;;;;;;;;4972674;28;20693;-63
2023/06/30 04:25:47;;;;;;;;;;;;;;;;;;4974033;28;20012;-64
2023/06/30 04:28:12;;;;;;;;;;;;;;;;;;4974635;28;20448;-63
2023/06/30 04:30:38;;;;;;;;;;;;;;;;;;4972536;28;19945;-62
2023/06/30 04:33:04;;;;;;;;;;;;;;;;;;4974743;28;19941;-64
2023/06/30 04:35:29;;;;;;;;;;;;;;;;;;4973540;28;19953;-64
2023/06/30 04:37:54;;;;;;;;;;;;;;;;;;4974199;28;20685;-62
2023/06/30 04:40:20;;;;;;;;;;;;;;;;;;4973569;28;20043;-63
2023/06/30 04:42:45;;;;;;;;;;;;;;;;;;4973571;28;19936;-64
2023/06/30 04:45:10;;;;;;;;;;;;;;;;;;4972409;28;20031;-64
2023/06/30 04:47:36;;;;;;;;;;;;;;;;;;4975515;28;19940;-63
2023/06/30 04:50:01;;;;;;;;;;;;;;;;;;4973319;28;19939;-66
2023/06/30 04:52:26;;;;;;;;;;;;;;;;;;4980578;28;20310;-63
2023/06/30 04:54:52;;;;;;;;;;;;;;;;;;4971919;28;19966;-60
2023/06/30 04:57:17;;;;;;;;;;;;;;;;;;4966692;28;20017;-61
2023/06/30 04:59:43;;;;;;;;;;;;;;;;;;4971686;28;19931;-61
2023/06/30 05:02:08;;;;;;;;;;;;;;;;;;4969551;28;19936;-61
2023/06/30 05:04:33;;;;;;;;;;;;;;;;;;4973393;28;19937;-60
2023/06/30 05:06:58;;;;;;;;;;;;;;;;;;4972584;28;20349;-60
2023/06/30 05:09:24;;;;;;;;;;;;;;;;;;4973615;28;19993;-60
2023/06/30 05:11:49;;;;;;;;;;;;;;;;;;4972241;28;19950;-61
2023/06/30 05:14:14;;;;;;;;;;;;;;;;;;4972823;28;19957;-62
2023/06/30 05:16:40;;;;;;;;;;;;;;;;;;4971382;28;19936;-63
2023/06/30 05:19:05;;;;;;;;;;;;;;;;;;4971079;28;19939;-60
2023/06/30 05:21:31;;;;;;;;;;;;;;;;;;4971608;28;19969;-61
2023/06/30 05:23:56;;;;;;;;;;;;;;;;;;4971293;28;19938;-62
2023/06/30 05:26:21;;;;;;;;;;;;;;;;;;4973419;28;20020;-61
2023/06/30 05:28:47;;;;;;;;;;;;;;;;;;4972013;28;19940;-63
2023/06/30 05:31:12;;;;;;;;;;;;;;;;;;4971710;28;19940;-61
2023/06/30 05:33:38;;;;;;;;;;;;;;;;;;4972909;28;20017;-61
2023/06/30 05:36:03;;;;;;;;;;;;;;;;;;4973134;28;19972;-61
2023/06/30 05:38:28;;;;;;;;;;;;;;;;;;4981197;28;19942;-62
2023/06/30 05:40:55;;;;;;;;;;;;;;;;;;4972023;28;19940;-60
2023/06/30 05:43:21;;;;;;;;;;;;;;;;;;4972596;28;19952;-63
2023/06/30 05:45:46;;;;;;;;;;;;;;;;;;4973046;28;19930;-61
2023/06/30 05:48:11;;;;;;;;;;;;;;;;;;4971695;28;20031;-58
2023/06/30 05:50:37;;;;;;;;;;;;;;;;;;4983426;28;19938;-63
2023/06/30 05:53:03;;;;;;;;;;;;;;;;;;4978637;28;20548;-61
2023/06/30 05:55:28;;;;;;;;;;;;;;;;;;4978482;28;19962;-59
2023/06/30 05:57:54;;;;;;;;;;;;;;;;;;4971787;28;19935;-62
2023/06/30 06:00:19;;;;;;;;;;;;;;;;;;4971989;28;20003;-61
2023/06/30 06:02:44;;;;;;;;;;;;;;;;;;4971069;28;20397;-61
2023/06/30 06:05:10;;;;;;;;;;;;;;;;;;4972034;28;19990;-62
2023/06/30 06:07:35;;;;;;;;;;;;;;;;;;4969999;28;20313;-60
2023/06/30 06:10:00;;;;;;;;;;;;;;;;;;4971928;28;20505;-61
2023/06/30 06:12:25;;;;;;;;;;;;;;;;;;4972604;28;20694;-62
2023/06/30 06:14:51;;;;;;;;;;;;;;;;;;4976677;28;19960;-63
2023/06/30 06:17:16;;;;;;;;;;;;;;;;;;4972748;28;19947;-61
2023/06/30 06:19:41;;;;;;;;;;;;;;;;;;4975193;28;19934;-59
2023/06/30 06:22:06;;;;;;;;;;;;;;;;;;4972808;28;19985;-61
2023/06/30 06:24:32;;;;;;;;;;;;;;;;;;4974251;28;20889;-60
2023/06/30 06:26:57;;;;;;;;;;;;;;;;;;4969684;28;19945;-59
2023/06/30 06:29:23;;;;;;;;;;;;;;;;;;4972213;28;19933;-61
2023/06/30 06:31:48;;;;;;;;;;;;;;;;;;4971152;28;20339;-59
2023/06/30 06:34:14;;;;;;;;;;;;;;;;;;4971399;28;19937;-61
2023/06/30 06:36:39;;;;;;;;;;;;;;;;;;4972574;28;19937;-61
2023/06/30 06:39:04;;;;;;;;;;;;;;;;;;4970110;28;19961;-60
2023/06/30 06:41:30;;;;;;;;;;;;;;;;;;4971914;28;19999;-60
2023/06/30 06:43:55;;;;;;;;;;;;;;;;;;4971103;28;20428;-61
2023/06/30 06:46:21;;;;;;;;;;;;;;;;;;4970084;28;19922;-60
2023/06/30 06:48:46;;;;;;;;;;;;;;;;;;4969156;28;20001;-60
2023/06/30 06:51:12;;;;;;;;;;;;;;;;;;4971358;28;20054;-60
2023/06/30 06:53:37;;;;;;;;;;;;;;;;;;4970712;28;20458;-59
2023/06/30 06:56:05;;;;;;;;;;;;;;;;;;4973290;28;19998;-61
2023/06/30 06:58:30;;;;;;;;;;;;;;;;;;4974246;28;20684;-61
2023/06/30 07:00:55;;;;;;;;;;;;;;;;;;4981647;28;20307;-61
2023/06/30 07:03:21;;;;;;;;;;;;;;;;;;4974565;28;20027;-61
2023/06/30 07:05:46;;;;;;;;;;;;;;;;;;4974211;28;19938;-59
2023/06/30 07:08:11;;;;;;;;;;;;;;;;;;4974799;28;19948;-62
2023/06/30 07:10:37;;;;;;;;;;;;;;;;;;4975600;28;19940;-62
2023/06/30 07:13:02;;;;;;;;;;;;;;;;;;4976347;28;19940;-61
2023/06/30 07:15:28;;;;;;;;;;;;;;;;;;4980466;28;20025;-61
2023/06/30 07:17:53;;;;;;;;;;;;;;;;;;4974489;28;20275;-60
2023/06/30 07:20:18;;;;;;;;;;;;;;;;;;4975866;28;19947;-61
2023/06/30 07:22:43;;;;;;;;;;;;;;;;;;4972907;28;20028;-60
2023/06/30 07:25:09;;;;;;;;;;;;;;;;;;4975426;28;20844;-61
2023/06/30 07:27:34;;;;;;;;;;;;;;;;;;4974645;28;20403;-61
2023/06/30 07:29:59;;;;;;;;;;;;;;;;;;4973773;28;19943;-61
2023/06/30 07:32:24;;;;;;;;;;;;;;;;;;4973421;28;19978;-62
2023/06/30 07:34:50;;;;;;;;;;;;;;;;;;4973568;28;19973;-62
2023/06/30 07:37:15;;;;;;;;;;;;;;;;;;4973534;28;20547;-61
2023/06/30 07:39:40;;;;;;;;;;;;;;;;;;4975500;28;20033;-61
2023/06/30 07:42:06;;;;;;;;;;;;;;;;;;4973379;28;20395;-60
2023/06/30 07:44:31;;;;;;;;;;;;;;;;;;4974299;28;20830;-60
2023/06/30 07:46:58;;;;;;;;;;;;;;;;;;4974436;28;19934;-62
2023/06/30 07:49:24;;;;;;;;;;;;;;;;;;4975725;28;19987;-61
2023/06/30 07:51:50;;;;;;;;;;;;;;;;;;4975260;28;20058;-61
2023/06/30 07:54:16;;;;;;;;;;;;;;;;;;4971891;28;20002;-61
2023/06/30 07:56:41;;;;;;;;;;;;;;;;;;4974055;28;20385;-61
2023/06/30 07:59:06;;;;;;;;;;;;;;;;;;4974876;28;20352;-60
2023/06/30 08:01:32;;;;;;;;;;;;;;;;;;4970677;28;20462;-59
2023/06/30 08:03:57;;;;;;;;;;;;;;;;;;4973073;28;19951;-60
2023/06/30 08:06:22;;;;;;;;;;;;;;;;;;4974484;28;20368;-59
2023/06/30 08:08:48;;;;;;;;;;;;;;;;;;4974957;28;20183;-58
2023/06/30 08:11:13;;;;;;;;;;;;;;;;;;4974941;28;19943;-60
2023/06/30 08:13:38;;;;;;;;;;;;;;;;;;4972553;28;19940;-59
2023/06/30 08:16:04;;;;;;;;;;;;;;;;;;4972427;28;19958;-60
2023/06/30 08:18:29;;;;;;;;;;;;;;;;;;4974049;28;19935;-61
2023/06/30 08:20:57;;;;;;;;;;;;;;;;;;4973162;28;20328;-60
2023/06/30 08:23:23;;;;;;;;;;;;;;;;;;4974991;28;20418;-59
2023/06/30 08:25:49;;;;;;;;;;;;;;;;;;4979644;28;19941;-59
2023/06/30 08:28:14;;;;;;;;;;;;;;;;;;4972465;28;19940;-60
2023/06/30 08:30:39;;;;;;;;;;;;;;;;;;4973030;28;19951;-60
2023/06/30 08:33:05;;;;;;;;;;;;;;;;;;4959202;28;20301;-59
2023/06/30 08:35:30;;;;;;;;;;;;;;;;;;4974313;28;20166;-61
2023/06/30 08:37:55;;;;;;;;;;;;;;;;;;4973611;28;19936;-60
2023/06/30 08:40:21;;;;;;;;;;;;;;;;;;4973302;28;19955;-62
2023/06/30 08:42:46;;;;;;;;;;;;;;;;;;4973605;28;20507;-61
2023/06/30 08:45:12;;;;;;;;;;;;;;;;;;4971190;28;20347;-61
2023/06/30 08:47:37;;;;;;;;;;;;;;;;;;4971880;28;20494;-60
2023/06/30 08:50:02;;;;;;;;;;;;;;;;;;4973751;28;19955;-61
2023/06/30 08:52:27;;;;;;;;;;;;;;;;;;4981129;28;20516;-61
2023/06/30 08:54:53;;;;;;;;;;;;;;;;;;4974129;28;19962;-61
2023/06/30 08:57:18;;;;;;;;;;;;;;;;;;4973500;28;19935;-60
2023/06/30 08:59:43;;;;;;;;;;;;;;;;;;4972283;28;20114;-61
2023/06/30 09:02:09;;;;;;;;;;;;;;;;;;4975386;28;20451;-57
2023/06/30 09:04:34;;;;;;;;;;;;;;;;;;4971563;28;20309;-60
2023/06/30 09:06:59;;;;;;;;;;;;;;;;;;4971848;28;20047;-60
2023/06/30 09:09:25;;;;;;;;;;;;;;;;;;4973568;28;19921;-62
2023/06/30 09:11:50;;;;;;;;;;;;;;;;;;4983397;28;20353;-59
2023/06/30 09:14:15;;;;;;;;;;;;;;;;;;4979506;28;20357;-60
2023/06/30 09:16:41;;;;;;;;;;;;;;;;;;4974732;28;19940;-60
2023/06/30 09:19:06;;;;;;;;;;;;;;;;;;4973492;28;20347;-62
2023/06/30 09:21:31;;;;;;;;;;;;;;;;;;4971438;28;19942;-61
2023/06/30 09:23:56;;;;;;;;;;;;;;;;;;4971101;28;19936;-61
2023/06/30 09:26:22;;;;;;;;;;;;;;;;;;4972983;28;19934;-57
2023/06/30 09:28:47;;;;;;;;;;;;;;;;;;4971429;28;20389;-61
2023/06/30 09:31:13;;;;;;;;;;;;;;;;;;4970693;28;20345;-61
2023/06/30 09:33:42;;;;;;;;;;;;;;;;;;4972177;28;19981;-66
2023/06/30 09:36:07;;;;;;;;;;;;;;;;;;4971433;28;19963;-62
2023/06/30 09:38:33;;;;;;;;;;;;;;;;;;4979112;28;19937;-61
2023/06/30 09:40:58;;;;;;;;;;;;;;;;;;4971844;28;19929;-62
2023/06/30 09:43:23;;;;;;;;;;;;;;;;;;4972539;28;20048;-61
2023/06/30 09:45:49;;;;;;;;;;;;;;;;;;4972824;28;19992;-60
2023/06/30 09:48:14;;;;;;;;;;;;;;;;;;4972997;28;20051;-61
2023/06/30 09:50:40;;;;;;;;;;;;;;;;;;4970139;28;19944;-61
2023/06/30 09:53:05;;;;;;;;;;;;;;;;;;4972747;28;20015;-60
2023/06/30 09:55:30;;;;;;;;;;;;;;;;;;4972303;28;19972;-61
2023/06/30 09:57:56;;;;;;;;;;;;;;;;;;4977720;28;19934;-62
2023/06/30 10:00:22;;;;;;;;;;;;;;;;;;4975410;28;20015;-62
2023/06/30 10:02:47;;;;;;;;;;;;;;;;;;4972114;28;19933;-61
2023/06/30 10:05:12;;;;;;;;;;;;;;;;;;4974016;28;19932;-60
2023/06/30 10:07:40;;;;;;;;;;;;;;;;;;4971101;28;20020;-60
2023/06/30 10:10:06;;;;;;;;;;;;;;;;;;4970466;28;19937;-61
2023/06/30 10:12:31;;;;;;;;;;;;;;;;;;4968901;28;19956;-65
2023/06/30 10:14:56;;;;;;;;;;;;;;;;;;4966587;28;20515;-59
2023/06/30 10:17:22;;;;;;;;;;;;;;;;;;4971527;28;19943;-59
2023/06/30 10:19:47;;;;;;;;;;;;;;;;;;4971252;28;20401;-61
2023/06/30 10:22:13;;;;;;;;;;;;;;;;;;4972002;28;19936;-61
2023/06/30 10:24:41;;;;;;;;;;;;;;;;;;4973385;28;19932;-62
2023/06/30 10:27:07;;;;;;;;;;;;;;;;;;4970787;28;19953;-62
2023/06/30 10:29:33;;;;;;;;;;;;;;;;;;4972112;28;19932;-62
2023/06/30 10:31:58;;;;;;;;;;;;;;;;;;4968940;28;19939;-59
2023/06/30 10:34:24;;;;;;;;;;;;;;;;;;4970448;28;19964;-61
2023/06/30 10:36:49;;;;;;;;;;;;;;;;;;4969201;28;19914;-60
2023/06/30 10:39:15;;;;;;;;;;;;;;;;;;4973176;28;19959;-60
2023/06/30 10:41:40;;;;;;;;;;;;;;;;;;4971086;28;19971;-61
2023/06/30 10:44:06;;;;;;;;;;;;;;;;;;4969948;28;20047;-60
2023/06/30 10:46:32;;;;;;;;;;;;;;;;;;4970738;28;19940;-60
2023/06/30 10:48:57;;;;;;;;;;;;;;;;;;4970327;28;19932;-61
2023/06/30 10:51:22;;;;;;;;;;;;;;;;;;4969308;28;20348;-63
2023/06/30 10:53:48;;;;;;;;;;;;;;;;;;4968989;28;20395;-61
2023/06/30 10:56:13;;;;;;;;;;;;;;;;;;4970469;28;20016;-61
2023/06/30 10:58:38;;;;;;;;;;;;;;;;;;4970114;28;20314;-60
2023/06/30 11:01:04;;;;;;;;;;;;;;;;;;4969806;28;19981;-59
2023/06/30 11:03:29;;;;;;;;;;;;;;;;;;4968046;28;20369;-61
2023/06/30 11:05:54;;;;;;;;;;;;;;;;;;4972186;28;19959;-61
2023/06/30 11:08:20;;;;;;;;;;;;;;;;;;4970444;28;19914;-63
2023/06/30 11:10:45;;;;;;;;;;;;;;;;;;4972259;28;19965;-60
2023/06/30 11:13:11;;;;;;;;;;;;;;;;;;4970630;28;20377;-60
2023/06/30 11:15:37;;;;;;;;;;;;;;;;;;4970217;28;20374;-60
2023/06/30 11:18:02;;;;;;;;;;;;;;;;;;4970744;28;19956;-59
2023/06/30 11:20:28;;;;;;;;;;;;;;;;;;4969750;28;19945;-60
2023/06/30 11:22:53;;;;;;;;;;;;;;;;;;4970729;28;20012;-59
2023/06/30 11:25:18;;;;;;;;;;;;;;;;;;4970610;28;19964;-60
2023/06/30 11:27:43;;;;;;;;;;;;;;;;;;4972835;28;20337;-60
2023/06/30 11:30:09;;;;;;;;;;;;;;;;;;4971767;28;19953;-61
2023/06/30 11:32:36;;;;;;;;;;;;;;;;;;4971375;28;20620;-61
2023/06/30 11:35:01;;;;;;;;;;;;;;;;;;4969410;28;19930;-60
2023/06/30 11:37:27;;;;;;;;;;;;;;;;;;4968507;28;19925;-60
2023/06/30 11:39:52;;;;;;;;;;;;;;;;;;4970206;28;20036;-61
2023/06/30 11:42:17;;;;;;;;;;;;;;;;;;4973342;28;19925;-59
2023/06/30 11:44:43;;;;;;;;;;;;;;;;;;4973737;28;19925;-60
2023/06/30 11:47:08;;;;;;;;;;;;;;;;;;4973846;28;19918;-60
2023/06/30 11:49:34;;;;;;;;;;;;;;;;;;4975474;28;19917;-61
2023/06/30 11:51:59;;;;;;;;;;;;;;;;;;4976068;28;20119;-60
2023/06/30 11:54:24;;;;;;;;;;;;;;;;;;4973555;28;19968;-60
2023/06/30 11:56:50;;;;;;;;;;;;;;;;;;4978761;28;20583;-60
2023/06/30 11:59:15;;;;;;;;;;;;;;;;;;4975232;28;19996;-60
2023/06/30 12:01:41;;;;;;;;;;;;;;;;;;4975136;28;19987;-57
2023/06/30 12:04:08;;;;;;;;;;;;;;;;;;4977815;28;20483;-60
2023/06/30 12:06:35;;;;;;;;;;;;;;;;;;4974278;28;19937;-60
2023/06/30 12:09:01;;;;;;;;;;;;;;;;;;4975563;28;19987;-59
2023/06/30 12:11:26;;;;;;;;;;;;;;;;;;4975545;28;20412;-59
2023/06/30 12:13:51;;;;;;;;;;;;;;;;;;4974084;28;19925;-62
2023/06/30 12:16:17;;;;;;;;;;;;;;;;;;4973361;28;20477;-60
2023/06/30 12:18:42;;;;;;;;;;;;;;;;;;4972146;28;20440;-60
2023/06/30 12:21:08;;;;;;;;;;;;;;;;;;4970604;28;20312;-59
2023/06/30 12:23:33;;;;;;;;;;;;;;;;;;4970235;28;19928;-60
2023/06/30 12:25:58;;;;;;;;;;;;;;;;;;4972773;28;20316;-63
2023/06/30 12:28:24;;;;;;;;;;;;;;;;;;4973295;28;20291;-60
2023/06/30 12:30:49;;;;;;;;;;;;;;;;;;4972247;28;19918;-63
2023/06/30 12:33:15;;;;;;;;;;;;;;;;;;4972808;28;19965;-61
2023/06/30 12:35:40;;;;;;;;;;;;;;;;;;4974100;28;20469;-60
2023/06/30 12:38:08;;;;;;;;;;;;;;;;;;4972165;28;19922;-60
2023/06/30 12:40:33;;;;;;;;;;;;;;;;;;4974157;28;19917;-59
2023/06/30 12:42:58;;;;;;;;;;;;;;;;;;4973990;28;20007;-60
2023/06/30 12:45:23;;;;;;;;;;;;;;;;;;4973037;28;20012;-60
2023/06/30 12:47:49;;;;;;;;;;;;;;;;;;4973094;28;20127;-60
2023/06/30 12:50:14;;;;;;;;;;;;;;;;;;4972095;28;19917;-60
2023/06/30 12:52:40;;;;;;;;;;;;;;;;;;4971332;28;19918;-61
2023/06/30 12:55:06;;;;;;;;;;;;;;;;;;4974054;28;20490;-62
2023/06/30 12:57:31;;;;;;;;;;;;;;;;;;4972782;28;20319;-59
2023/06/30 12:59:56;;;;;;;;;;;;;;;;;;4973055;28;19956;-60
2023/06/30 13:02:22;;;;;;;;;;;;;;;;;;4970938;28;20317;-60
2023/06/30 13:04:47;;;;;;;;;;;;;;;;;;4972694;28;19944;-61
2023/06/30 13:07:12;;;;;;;;;;;;;;;;;;4972624;28;20335;-60
2023/06/30 13:09:38;;;;;;;;;;;;;;;;;;4974517;28;20006;-58
2023/06/30 13:12:04;;;;;;;;;;;;;;;;;;4974619;28;19949;-60
2023/06/30 13:14:30;;;;;;;;;;;;;;;;;;4971026;28;20021;-60
2023/06/30 13:16:57;;;;;;;;;;;;;;;;;;4969197;28;20429;-60
2023/06/30 13:19:24;;;;;;;;;;;;;;;;;;4971679;28;19981;-60
2023/06/30 13:21:50;;;;;;;;;;;;;;;;;;4971614;28;20343;-60
2023/06/30 13:24:15;;;;;;;;;;;;;;;;;;4972639;28;19922;-60
2023/06/30 13:26:40;;;;;;;;;;;;;;;;;;4972714;28;19924;-58
2023/06/30 13:29:06;;;;;;;;;;;;;;;;;;4973162;28;19925;-61
2023/06/30 13:31:31;;;;;;;;;;;;;;;;;;4972743;28;20408;-61
2023/06/30 13:33:56;;;;;;;;;;;;;;;;;;4973514;28;19932;-59
2023/06/30 13:36:22;;;;;;;;;;;;;;;;;;4972751;28;20535;-60
2023/06/30 13:38:47;;;;;;;;;;;;;;;;;;4971961;28;20055;-61
2023/06/30 13:41:12;;;;;;;;;;;;;;;;;;4971478;28;19910;-61
2023/06/30 13:43:38;;;;;;;;;;;;;;;;;;4971155;28;19928;-61
2023/06/30 13:46:03;;;;;;;;;;;;;;;;;;4971402;28;20630;-61
2023/06/30 13:48:29;;;;;;;;;;;;;;;;;;4974194;28;20091;-60
2023/06/30 13:50:54;;;;;;;;;;;;;;;;;;4973590;28;20380;-60
2023/06/30 13:53:19;;;;;;;;;;;;;;;;;;4971082;28;19964;-61
2023/06/30 13:55:45;;;;;;;;;;;;;;;;;;4972768;28;19934;-62
2023/06/30 13:58:10;;;;;;;;;;;;;;;;;;4970870;28;20444;-58
2023/06/30 14:00:35;;;;;;;;;;;;;;;;;;4971355;28;19988;-60
2023/06/30 14:03:01;;;;;;;;;;;;;;;;;;4975933;28;19972;-60
2023/06/30 14:05:26;;;;;;;;;;;;;;;;;;4972119;28;20340;-60
2023/06/30 14:07:51;;;;;;;;;;;;;;;;;;4971592;28;19922;-60
2023/06/30 14:10:17;;;;;;;;;;;;;;;;;;4971551;28;19918;-60
2023/06/30 14:12:42;;;;;;;;;;;;;;;;;;4970969;28;19918;-61
2023/06/30 14:15:08;;;;;;;;;;;;;;;;;;4972373;28;20957;-60
2023/06/30 14:17:33;;;;;;;;;;;;;;;;;;4971731;28;19997;-61
2023/06/30 14:19:59;;;;;;;;;;;;;;;;;;4972300;28;19945;-60
2023/06/30 14:22:24;;;;;;;;;;;;;;;;;;4972052;28;19995;-60
2023/06/30 14:24:49;;;;;;;;;;;;;;;;;;4973483;28;19918;-61
2023/06/30 14:27:15;;;;;;;;;;;;;;;;;;4970220;28;19941;-61
2023/06/30 14:29:42;;;;;;;;;;;;;;;;;;4979482;28;20514;-62
2023/06/30 14:32:08;;;;;;;;;;;;;;;;;;4968583;28;19924;-60
2023/06/30 14:34:33;;;;;;;;;;;;;;;;;;4972016;28;19926;-62
2023/06/30 14:36:58;;;;;;;;;;;;;;;;;;4973550;28;20338;-61
2023/06/30 14:39:24;;;;;;;;;;;;;;;;;;4971843;28;19918;-61
2023/06/30 14:41:49;;;;;;;;;;;;;;;;;;4973468;28;19924;-61
2023/06/30 14:44:14;;;;;;;;;;;;;;;;;;4971694;28;20004;-61
2023/06/30 14:46:40;;;;;;;;;;;;;;;;;;4971835;28;19918;-59
2023/06/30 14:49:06;;;;;;;;;;;;;;;;;;4980246;28;19956;-59
2023/06/30 14:51:32;;;;;;;;;;;;;;;;;;4971349;28;19922;-58
2023/06/30 14:53:57;;;;;;;;;;;;;;;;;;4969547;28;20005;-60
2023/06/30 14:56:22;;;;;;;;;;;;;;;;;;4971988;28;19967;-60
2023/06/30 14:58:49;;;;;;;;;;;;;;;;;;4971865;28;20451;-60
2023/06/30 15:01:15;;;;;;;;;;;;;;;;;;4971656;28;19922;-60
2023/06/30 15:03:40;;;;;;;;;;;;;;;;;;4972795;28;20320;-60
2023/06/30 15:06:06;;;;;;;;;;;;;;;;;;4972351;28;19979;-60
2023/06/30 15:08:32;;;;;;;;;;;;;;;;;;4971121;28;19958;-60
2023/06/30 15:10:57;;;;;;;;;;;;;;;;;;4972520;28;20382;-60
2023/06/30 15:13:23;;;;;;;;;;;;;;;;;;4970581;28;20094;-60
2023/06/30 15:15:48;;;;;;;;;;;;;;;;;;4968242;28;19932;-60
2023/06/30 15:18:13;;;;;;;;;;;;;;;;;;4974427;28;19918;-61
2023/06/30 15:20:38;;;;;;;;;;;;;;;;;;4974615;28;20313;-61
2023/06/30 15:23:04;;;;;;;;;;;;;;;;;;4975852;28;20036;-59
2023/06/30 15:25:30;;;;;;;;;;;;;;;;;;4974001;28;19925;-59
2023/06/30 15:27:55;;;;;;;;;;;;;;;;;;4975677;28;19963;-60
2023/06/30 15:30:21;;;;;;;;;;;;;;;;;;4974070;28;19959;-60
2023/06/30 15:32:46;;;;;;;;;;;;;;;;;;4975642;28;20269;-60
2023/06/30 15:35:11;;;;;;;;;;;;;;;;;;4974012;28;19960;-62
2023/06/30 15:37:37;;;;;;;;;;;;;;;;;;4973027;28;19925;-61
2023/06/30 15:40:02;;;;;;;;;;;;;;;;;;4971482;28;19922;-61
2023/06/30 15:42:28;;;;;;;;;;;;;;;;;;4974153;28;19914;-61
2023/06/30 15:44:53;;;;;;;;;;;;;;;;;;4974857;28;20917;-60
2023/06/30 15:47:18;;;;;;;;;;;;;;;;;;4975711;28;19969;-60
2023/06/30 15:49:44;;;;;;;;;;;;;;;;;;4973473;28;20374;-61
2023/06/30 15:52:09;;;;;;;;;;;;;;;;;;4973720;28;19948;-61
2023/06/30 15:54:35;;;;;;;;;;;;;;;;;;4975407;28;20393;-60
2023/06/30 15:57:00;;;;;;;;;;;;;;;;;;4975359;28;19926;-60
2023/06/30 15:59:26;;;;;;;;;;;;;;;;;;4973780;28;19918;-61
2023/06/30 16:01:51;;;;;;;;;;;;;;;;;;4974472;28;20560;-59
2023/06/30 16:04:16;;;;;;;;;;;;;;;;;;4976045;28;19918;-59
2023/06/30 16:06:42;;;;;;;;;;;;;;;;;;4973890;28;19925;-59
2023/06/30 16:09:07;;;;;;;;;;;;;;;;;;4974560;28;20383;-59
2023/06/30 16:11:32;;;;;;;;;;;;;;;;;;4973560;28;19914;-60
2023/06/30 16:13:57;;;;;;;;;;;;;;;;;;4975894;28;19944;-60
2023/06/30 16:16:23;;;;;;;;;;;;;;;;;;4973525;28;19940;-60
2023/06/30 16:18:48;;;;;;;;;;;;;;;;;;4980770;28;19928;-59
2023/06/30 16:21:13;;;;;;;;;;;;;;;;;;4974709;28;19918;-60
2023/06/30 16:23:39;;;;;;;;;;;;;;;;;;4973807;28;19921;-59
2023/06/30 16:26:04;;;;;;;;;;;;;;;;;;4974476;28;20437;-60
2023/06/30 16:28:29;;;;;;;;;;;;;;;;;;4973835;28;19917;-59
2023/06/30 16:30:55;;;;;;;;;;;;;;;;;;4974188;28;19918;-62
2023/06/30 16:33:20;;;;;;;;;;;;;;;;;;4975396;28;19957;-59